A- A+ FrançaisEnglishEspañol中国

最近的 LFOP Rouen-Boos LFOZ Orleans-St-Denis-De-L'hotel LFBC Cazaux LFBT Tarbes-Lourdes-Pyrénées

manche à air

飞行员的航空天气,使用METAR(气象机场报告)进行的飞行准备和TAF(终端机场预报:针对以下情况的短期天气预报)航空)。 以及其他资源,例如VAC(目视进近图)和NOTAM(通知飞行员)以进行预试飞行.

Vastervas Hasslo机场 (Suède) / OACI ESOW/ IATA VST

Vastervas Hasslo机场的高度为6 m=20 ft. 它位于附近 Stockholm Västerås (Suède). 可提供5天天气预报 Västerås Kommun 位于 4.2 km.

METAR Vastervas Hasslo机场的 - ESOW

ESOW 100050Z AUTO 33008KT 9999 NCD M02/M05 Q1003

Vastervas Hasslo机场METAR解码 (SE)

ESOW机场发行的METAR日期mardi 10 décembre 2019至00:50 GMT. 这是一个自动生成的METAR. 警告:此METAR已过期,已于714分钟前发布.

可见度为大于 10 km=大于6.2 sm.

温度为-2°C=28 °F 露点为-5°C=23 °F 。 这相当于80%的相对湿度。.

QNH是1003 hPa=29.62 inHg

的风8 kt=15 km/h, 风向为330°.

天空晴朗

TAF Vastervas Hasslo机场的 - ESOW

ESOW 011443Z 0115/0119 VRB02KT 0250 FG VV002 PROB40 0115/0117 2000 BR SCT002 TEMPO 0117/0119 5000 -DZ BR FEW002 BKN030

ESOW 011443Z 0115/0119 VRB02KT 0250 多雾路段 VV002 拥有40%的可能性 0115/0117 2000 薄雾 距离002 暂时 0117/0119 5000 光DZ 薄雾 处少云002 距云030

附近的机场Vastervas Hasslo

Västerås Kommun的一般天气5天预报 (4.2 km)ESSU Eskiltuna机场 (27 km)ESQO Arboga机场 (46 km)ESCM Uppsala机场 (64 km)ESSA Stockholm Arlanda机场 (73 km)ESSB Stockholm Bronna机场 (78 km)ESKN Stockholm Skavsta机场 (90 km)

Vastervas Hasslo视觉方法图 - ESOW

所提供的视觉方法图(VAC视觉方法图)不保证其及时性。 在将其用于飞行准备或在飞行期间使用之前,飞行员是唯一负责验证其有效性的人员。.

VAC de ESOW

的鸟瞰图

Vastervas Hasslo机场的NOTAM

提供的NOTAM不能保证其时事性。 在将其用于飞行准备或在飞行期间使用之前,飞行员是唯一负责验证其有效性的人员。

没有通知

数据源